KOGB/OGB METAR and TAF weather

Enter ICAO airport designator
Station Type Date Time Source
KOGB METAR 2018/12/17 17:53 UTC NOAA

KOGB 171753Z AUTO 27007KT CLR 16/07 A3006 RMK AO2 SLP178 T01610067 10161 20067 58018 $


Station Type Date Time Source
KOGB Decoded METAR 2018/12/17 17:53 UTC NOAA

ORANGEBURG MUNICIPAL AIRPORT, SC, United States (KOGB) 33-28N 080-51W 59M
Dec 17, 2018 - 12:53 PM EST / 2018.12.17 1753 UTC
Wind: from the W (270 degrees) at 8 MPH (7 KT):0
Sky conditions: clear
Temperature: 61.0 F (16.1 C)
Dew Point: 44.1 F (6.7 C)
Relative Humidity: 53%
Pressure (altimeter): 30.06 in. Hg (1017 hPa)
Pressure tendency: 0.05 inches (1.8 hPa) lower than three hours ago
ob: KOGB 171753Z AUTO 27007KT CLR 16/07 A3006 RMK AO2 SLP178 T01610067 10161 20067 58018
cycle: 18

Station Type Date Time Source
KOGB TAF 2018/12/17 18:30 UTC NOAA

TAF KOGB 171729Z 1718/1818 27005KT P6SM SCT200
FM180000 00000KT P6SM SKC
FM181400 05006KT P6SM SCT250


Example: see airport list